createdAt,value
2023-01-09T00:00:08.126Z,49.68
2023-01-09T00:01:08.091Z,52.18
2023-01-09T00:02:08.090Z,49.71
2023-01-09T00:03:08.050Z,52.50
2023-01-09T00:04:08.298Z,50.78
2023-01-09T00:05:08.041Z,55.12
2023-01-09T00:06:08.209Z,51.23
2023-01-09T00:07:08.045Z,51.74
2023-01-09T00:08:08.020Z,51.14
2023-01-09T00:09:08.049Z,50.37
2023-01-09T00:10:08.005Z,51.89
2023-01-09T00:11:08.099Z,50.15
2023-01-09T00:12:08.009Z,50.33
2023-01-09T00:13:08.022Z,52.09
2023-01-09T00:14:09.649Z,49.18
2023-01-09T00:15:07.978Z,53.51
2023-01-09T00:16:08.126Z,49.25
2023-01-09T00:17:07.953Z,47.57
2023-01-09T00:18:07.958Z,50.39
2023-01-09T00:19:07.969Z,49.55
2023-01-09T00:20:07.956Z,48.84
2023-01-09T00:21:08.222Z,53.52
2023-01-09T00:22:07.937Z,49.77
2023-01-09T00:23:07.915Z,52.29
2023-01-09T00:24:07.967Z,49.49
2023-01-09T00:25:07.901Z,52.81
2023-01-09T00:26:07.945Z,50.30
2023-01-09T00:27:07.885Z,50.60
2023-01-09T00:28:07.877Z,50.62
2023-01-09T00:29:07.874Z,48.32
2023-01-09T00:30:08.062Z,52.18
2023-01-09T00:31:07.882Z,47.09
2023-01-09T00:32:07.999Z,48.01
2023-01-09T00:33:07.845Z,52.16
2023-01-09T00:34:07.839Z,50.32
2023-01-09T00:35:07.833Z,48.40
2023-01-09T00:36:07.822Z,52.01
2023-01-09T00:37:07.918Z,47.92
2023-01-09T00:38:07.817Z,48.82
2023-01-09T00:39:07.826Z,55.32
2023-01-09T00:40:07.801Z,51.08
2023-01-09T00:41:07.790Z,48.89
2023-01-09T00:42:07.785Z,48.55
2023-01-09T00:43:07.791Z,51.56
2023-01-09T00:44:07.775Z,50.62
2023-01-09T00:45:07.767Z,53.03
2023-01-09T00:46:07.890Z,53.54
2023-01-09T00:47:07.772Z,48.86
2023-01-09T00:48:07.759Z,50.06
2023-01-09T00:49:07.737Z,53.99
2023-01-09T00:50:07.724Z,50.01
2023-01-09T00:51:07.720Z,50.91
2023-01-09T00:52:07.716Z,49.54
2023-01-09T00:53:07.860Z,49.94
2023-01-09T00:54:07.702Z,50.59
2023-01-09T00:55:07.689Z,53.32
2023-01-09T00:56:07.689Z,49.67
2023-01-09T00:57:07.673Z,52.20
2023-01-09T00:58:07.702Z,57.34
2023-01-09T00:59:07.670Z,51.74
2023-01-09T01:00:07.867Z,53.78
2023-01-09T01:01:07.759Z,53.60
2023-01-09T01:02:07.860Z,54.14
2023-01-09T01:03:07.779Z,51.52
2023-01-09T01:04:07.653Z,54.68
2023-01-09T01:05:07.626Z,52.46
2023-01-09T01:06:07.649Z,53.82
2023-01-09T01:07:07.629Z,53.40
2023-01-09T01:08:07.613Z,54.56
2023-01-09T01:09:07.634Z,53.94
2023-01-09T01:10:07.592Z,56.00
2023-01-09T01:11:07.588Z,54.76
2023-01-09T01:12:07.650Z,50.78
2023-01-09T01:13:07.571Z,52.11
2023-01-09T01:14:07.560Z,53.49
2023-01-09T01:15:07.580Z,55.20
2023-01-09T01:16:07.578Z,52.34
2023-01-09T01:17:07.544Z,55.04
2023-01-09T01:18:07.543Z,52.40
2023-01-09T01:19:07.538Z,52.14
2023-01-09T01:20:07.543Z,51.62
2023-01-09T01:21:07.543Z,53.17
2023-01-09T01:22:07.526Z,55.57
2023-01-09T01:23:07.500Z,51.85
2023-01-09T01:24:07.505Z,49.81
2023-01-09T01:25:07.504Z,49.96
2023-01-09T01:26:08.233Z,53.35
2023-01-09T01:27:07.483Z,50.32
2023-01-09T01:28:07.475Z,52.87
2023-01-09T01:29:07.468Z,51.17
2023-01-09T01:30:07.460Z,52.91
2023-01-09T01:31:07.507Z,48.82
2023-01-09T01:32:07.445Z,50.73
2023-01-09T01:33:07.456Z,57.35
2023-01-09T01:34:07.435Z,50.74
2023-01-09T01:35:07.457Z,53.60
2023-01-09T01:36:07.439Z,50.25
2023-01-09T01:37:07.453Z,52.81
2023-01-09T01:38:07.407Z,49.15
2023-01-09T01:39:07.396Z,49.64
2023-01-09T01:40:07.409Z,50.33
2023-01-09T01:41:07.423Z,50.21
2023-01-09T01:42:07.744Z,51.38
2023-01-09T01:43:07.387Z,50.46
2023-01-09T01:44:07.365Z,49.49
2023-01-09T01:45:07.367Z,51.70
2023-01-09T01:46:07.399Z,54.76
2023-01-09T01:47:07.489Z,51.65
2023-01-09T01:48:07.356Z,49.17
2023-01-09T01:49:07.352Z,47.72
2023-01-09T01:50:07.333Z,49.00
2023-01-09T01:51:07.316Z,51.92
2023-01-09T01:52:07.304Z,51.14
2023-01-09T01:53:07.316Z,53.44
2023-01-09T01:54:07.660Z,50.93
2023-01-09T01:55:07.439Z,56.48
2023-01-09T01:56:07.293Z,53.79
2023-01-09T01:57:07.286Z,52.26
2023-01-09T01:58:07.276Z,53.40
2023-01-09T01:59:07.291Z,52.10
2023-01-09T02:00:07.257Z,57.10
2023-01-09T02:01:07.453Z,55.99
2023-01-09T02:02:07.397Z,53.97
2023-01-09T02:03:07.291Z,55.99
2023-01-09T02:04:07.265Z,54.92
2023-01-09T02:05:07.243Z,53.97
2023-01-09T02:06:07.224Z,55.35
2023-01-09T02:07:07.217Z,53.25
2023-01-09T02:08:07.296Z,53.81
2023-01-09T02:09:07.204Z,54.22
2023-01-09T02:10:07.212Z,59.74
2023-01-09T02:11:07.183Z,56.94
2023-01-09T02:12:07.219Z,56.22
2023-01-09T02:13:07.178Z,56.95
2023-01-09T02:14:07.187Z,56.88
2023-01-09T02:15:07.225Z,54.31
2023-01-09T02:16:07.201Z,52.96
2023-01-09T02:17:07.158Z,56.86
2023-01-09T02:18:07.144Z,55.82
2023-01-09T02:19:07.266Z,52.52
2023-01-09T02:20:07.504Z,55.02
2023-01-09T02:21:07.169Z,54.80
2023-01-09T02:22:07.128Z,54.03
2023-01-09T02:23:07.127Z,53.79
2023-01-09T02:24:07.099Z,53.87
2023-01-09T02:25:07.105Z,58.04
2023-01-09T02:26:07.100Z,55.12
2023-01-09T02:27:08.094Z,56.70
2023-01-09T02:28:07.088Z,54.27
2023-01-09T02:29:07.117Z,56.41
2023-01-09T02:30:07.076Z,56.22
2023-01-09T02:31:07.070Z,56.44
2023-01-09T02:32:07.097Z,55.82
2023-01-09T02:33:07.052Z,55.09
2023-01-09T02:34:07.039Z,54.85
2023-01-09T02:35:07.038Z,56.13
2023-01-09T02:36:07.092Z,54.79
2023-01-09T02:37:07.021Z,54.84
2023-01-09T02:38:07.021Z,56.92
2023-01-09T02:39:07.013Z,54.33
2023-01-09T02:40:07.001Z,52.81
2023-01-09T02:41:07.010Z,54.32
2023-01-09T02:42:07.048Z,54.34
2023-01-09T02:43:07.027Z,52.81
2023-01-09T02:44:06.982Z,53.32
2023-01-09T02:45:06.958Z,53.83
2023-01-09T02:46:07.036Z,50.93
2023-01-09T02:47:06.973Z,51.15
2023-01-09T02:48:06.962Z,50.26
2023-01-09T02:49:06.951Z,53.34
2023-01-09T02:50:06.937Z,55.13
2023-01-09T02:51:06.930Z,51.11
2023-01-09T02:52:06.943Z,50.64
2023-01-09T02:53:06.935Z,52.98
2023-01-09T02:54:06.922Z,48.98
2023-01-09T02:55:06.910Z,50.68
2023-01-09T02:56:06.896Z,50.23
2023-01-09T02:57:07.901Z,49.38
2023-01-09T02:58:06.900Z,50.05
2023-01-09T02:59:06.877Z,48.96
2023-01-09T03:00:06.890Z,49.67
2023-01-09T03:01:06.931Z,51.97
2023-01-09T03:02:06.861Z,54.20
2023-01-09T03:03:06.912Z,50.97
2023-01-09T03:04:06.849Z,50.65
2023-01-09T03:05:06.847Z,51.91
2023-01-09T03:06:06.835Z,56.69
2023-01-09T03:07:06.824Z,55.27
2023-01-09T03:08:06.865Z,51.64
2023-01-09T03:09:06.824Z,48.71
2023-01-09T03:10:06.821Z,49.78
2023-01-09T03:11:06.832Z,52.01
2023-01-09T03:12:06.794Z,52.28
2023-01-09T03:13:06.814Z,56.69
2023-01-09T03:14:06.787Z,54.82
2023-01-09T03:15:06.826Z,51.92
2023-01-09T03:16:06.846Z,52.97
2023-01-09T03:17:06.834Z,49.87
2023-01-09T03:18:06.814Z,52.77
2023-01-09T03:19:06.805Z,53.85
2023-01-09T03:20:06.754Z,49.55
2023-01-09T03:21:06.742Z,54.08
2023-01-09T03:22:06.977Z,58.81
2023-01-09T03:23:06.766Z,52.86
2023-01-09T03:24:06.769Z,52.08
2023-01-09T03:25:06.716Z,49.18
2023-01-09T03:26:06.728Z,51.72
2023-01-09T03:27:06.729Z,55.92
2023-01-09T03:28:06.717Z,54.04
2023-01-09T03:29:06.706Z,55.05
2023-01-09T03:30:06.769Z,52.10
2023-01-09T03:31:06.761Z,54.58
2023-01-09T03:32:06.684Z,55.34
2023-01-09T03:33:06.655Z,56.21
2023-01-09T03:34:06.688Z,58.47
2023-01-09T03:35:06.649Z,54.91
2023-01-09T03:36:06.658Z,52.71
2023-01-09T03:37:06.628Z,52.95
2023-01-09T03:38:07.955Z,54.66
2023-01-09T03:39:07.761Z,54.68
2023-01-09T03:40:06.611Z,55.18
2023-01-09T03:41:06.589Z,54.04
2023-01-09T03:42:07.633Z,53.57
2023-01-09T03:43:06.590Z,57.38
2023-01-09T03:44:06.579Z,55.98
2023-01-09T03:45:06.583Z,52.37
2023-01-09T03:46:06.631Z,51.61
2023-01-09T03:47:06.581Z,54.90
2023-01-09T03:48:06.682Z,55.31
2023-01-09T03:49:06.563Z,53.86
2023-01-09T03:50:06.555Z,55.01
2023-01-09T03:51:06.551Z,57.20
2023-01-09T03:52:06.530Z,54.43
2023-01-09T03:53:06.530Z,48.35
2023-01-09T03:54:06.536Z,53.48
2023-01-09T03:55:06.660Z,48.88
2023-01-09T03:56:06.546Z,53.47
2023-01-09T03:57:06.506Z,58.16
2023-01-09T03:58:06.638Z,56.85
2023-01-09T03:59:07.504Z,59.02
2023-01-09T04:00:06.491Z,56.01
2023-01-09T04:01:06.543Z,55.14
2023-01-09T04:02:06.576Z,58.93
2023-01-09T04:03:06.469Z,57.60
2023-01-09T04:04:06.463Z,55.02
2023-01-09T04:05:06.457Z,59.35
2023-01-09T04:06:06.440Z,57.76
2023-01-09T04:07:06.439Z,55.92
2023-01-09T04:08:06.455Z,57.69
2023-01-09T04:09:06.429Z,57.73
2023-01-09T04:10:06.791Z,60.54
2023-01-09T04:11:06.433Z,59.09
2023-01-09T04:12:06.399Z,56.81
2023-01-09T04:13:06.407Z,56.15
2023-01-09T04:14:06.384Z,58.08
2023-01-09T04:15:06.561Z,57.46
2023-01-09T04:16:06.411Z,56.46
2023-01-09T04:17:06.382Z,56.52
2023-01-09T04:18:06.360Z,59.90
2023-01-09T04:19:06.366Z,60.47
2023-01-09T04:20:06.364Z,58.50
2023-01-09T04:21:06.359Z,58.85
2023-01-09T04:22:06.351Z,58.85
2023-01-09T04:23:06.357Z,62.27
2023-01-09T04:24:06.381Z,61.74
2023-01-09T04:25:06.325Z,60.80
2023-01-09T04:26:06.310Z,60.58
2023-01-09T04:27:06.336Z,61.43
2023-01-09T04:28:06.336Z,61.08
2023-01-09T04:29:06.287Z,60.06
2023-01-09T04:30:06.278Z,60.56
2023-01-09T04:31:06.264Z,59.58
2023-01-09T04:32:06.448Z,59.99
2023-01-09T04:33:06.304Z,60.47
2023-01-09T04:34:07.380Z,59.77
2023-01-09T04:35:06.307Z,61.43
2023-01-09T04:36:06.244Z,62.34
2023-01-09T04:37:06.225Z,62.83
2023-01-09T04:38:06.220Z,61.28
2023-01-09T04:39:06.237Z,60.63
2023-01-09T04:40:06.220Z,62.76
2023-01-09T04:41:06.196Z,62.67
2023-01-09T04:42:06.209Z,61.88
2023-01-09T04:43:06.183Z,62.74
2023-01-09T04:44:06.217Z,60.63
2023-01-09T04:45:06.191Z,62.95
2023-01-09T04:46:06.227Z,62.35
2023-01-09T04:47:06.164Z,60.53
2023-01-09T04:48:06.162Z,62.92
2023-01-09T04:49:06.148Z,61.18
2023-01-09T04:50:06.175Z,62.32
2023-01-09T04:51:06.140Z,62.97
2023-01-09T04:52:06.139Z,62.35
2023-01-09T04:53:06.238Z,63.40
2023-01-09T04:54:06.112Z,63.23
2023-01-09T04:55:06.117Z,60.47
2023-01-09T04:56:06.120Z,63.60
2023-01-09T04:57:06.095Z,59.66
2023-01-09T04:58:06.084Z,60.70
2023-01-09T04:59:06.330Z,59.49
2023-01-09T05:00:06.112Z,62.21
2023-01-09T05:01:06.162Z,61.56
2023-01-09T05:02:06.276Z,62.08
2023-01-09T05:03:06.210Z,62.37
2023-01-09T05:04:06.094Z,60.60
2023-01-09T05:05:06.052Z,61.78
2023-01-09T05:06:06.040Z,60.35
2023-01-09T05:07:06.042Z,60.58
2023-01-09T05:08:06.213Z,60.59
2023-01-09T05:09:06.020Z,60.22
2023-01-09T05:10:06.008Z,60.71
2023-01-09T05:11:06.005Z,60.99
2023-01-09T05:12:06.007Z,61.70
2023-01-09T05:13:06.036Z,60.24
2023-01-09T05:14:05.991Z,60.75
2023-01-09T05:15:05.986Z,61.49
2023-01-09T05:16:06.020Z,61.42
2023-01-09T05:17:05.980Z,63.51
2023-01-09T05:18:05.957Z,62.91
2023-01-09T05:19:05.979Z,61.23
2023-01-09T05:20:05.953Z,61.05
2023-01-09T05:21:06.000Z,62.67
2023-01-09T05:22:05.992Z,63.58
2023-01-09T05:23:05.944Z,62.75
2023-01-09T05:24:05.940Z,63.12
2023-01-09T05:25:05.923Z,61.31
2023-01-09T05:26:05.912Z,60.75
2023-01-09T05:27:05.936Z,61.85
2023-01-09T05:28:05.896Z,62.23
2023-01-09T05:29:05.900Z,63.17
2023-01-09T05:30:06.054Z,62.32
2023-01-09T05:31:05.940Z,62.72
2023-01-09T05:32:05.885Z,61.71
2023-01-09T05:33:05.872Z,61.86
2023-01-09T05:34:05.878Z,62.77
2023-01-09T05:35:06.068Z,64.34
2023-01-09T05:36:05.879Z,64.63
2023-01-09T05:37:05.842Z,63.54
2023-01-09T05:38:05.856Z,63.56
2023-01-09T05:39:05.841Z,63.07
2023-01-09T05:40:06.038Z,64.04
2023-01-09T05:41:05.830Z,63.62
2023-01-09T05:42:05.937Z,61.91
2023-01-09T05:43:05.803Z,64.00
2023-01-09T05:44:05.795Z,63.95
2023-01-09T05:45:05.795Z,62.87
2023-01-09T05:46:05.838Z,61.97
2023-01-09T05:47:05.861Z,62.34
2023-01-09T05:48:05.790Z,62.89
2023-01-09T05:49:05.768Z,63.40
2023-01-09T05:50:05.751Z,62.48
2023-01-09T05:51:05.747Z,62.50
2023-01-09T05:52:05.915Z,61.15
2023-01-09T05:53:05.731Z,63.27
2023-01-09T05:54:05.723Z,62.33
2023-01-09T05:55:05.723Z,62.14
2023-01-09T05:56:05.714Z,62.67
2023-01-09T05:57:05.902Z,61.04
2023-01-09T05:58:05.696Z,60.44
2023-01-09T05:59:05.770Z,61.76
2023-01-09T06:00:05.693Z,62.42
2023-01-09T06:01:05.719Z,61.21
2023-01-09T06:02:05.722Z,61.48
2023-01-09T06:03:05.758Z,62.42
2023-01-09T06:04:05.806Z,62.54
2023-01-09T06:05:05.644Z,61.30
2023-01-09T06:06:05.665Z,63.08
2023-01-09T06:07:05.636Z,63.26
2023-01-09T06:08:05.627Z,63.08
2023-01-09T06:09:05.625Z,63.53
2023-01-09T06:10:05.603Z,62.32
2023-01-09T06:11:05.618Z,61.18
2023-01-09T06:12:05.599Z,60.80
2023-01-09T06:13:05.614Z,62.95
2023-01-09T06:14:05.580Z,63.45
2023-01-09T06:15:07.985Z,63.85
2023-01-09T06:16:05.657Z,61.95
2023-01-09T06:17:05.564Z,62.05
2023-01-09T06:18:05.551Z,63.47
2023-01-09T06:19:05.554Z,64.74
2023-01-09T06:20:05.551Z,62.77
2023-01-09T06:21:05.547Z,63.50
2023-01-09T06:22:05.624Z,62.23
2023-01-09T06:23:05.534Z,63.83
2023-01-09T06:24:05.519Z,63.36
2023-01-09T06:25:05.545Z,62.97
2023-01-09T06:26:05.515Z,62.26
2023-01-09T06:27:05.500Z,64.53
2023-01-09T06:28:05.490Z,61.35
2023-01-09T06:29:05.489Z,62.17
2023-01-09T06:30:05.482Z,63.67
2023-01-09T06:31:05.552Z,61.43
2023-01-09T06:32:05.465Z,62.73
2023-01-09T06:33:05.466Z,63.23
2023-01-09T06:34:05.473Z,63.11
2023-01-09T06:35:05.450Z,62.72
2023-01-09T06:36:05.455Z,62.92
2023-01-09T06:37:05.461Z,63.01
2023-01-09T06:38:05.438Z,62.70
2023-01-09T06:39:05.454Z,61.55
2023-01-09T06:40:05.419Z,62.45
2023-01-09T06:41:05.391Z,64.04
2023-01-09T06:42:06.402Z,63.63
2023-01-09T06:43:05.405Z,63.49
2023-01-09T06:44:05.392Z,64.56
2023-01-09T06:45:05.383Z,63.82
2023-01-09T06:46:05.451Z,62.45
2023-01-09T06:47:05.369Z,62.68
2023-01-09T06:48:05.370Z,60.82
2023-01-09T06:49:05.357Z,62.51
2023-01-09T06:50:05.351Z,61.62
2023-01-09T06:51:05.342Z,61.72
2023-01-09T06:52:05.334Z,62.27
2023-01-09T06:53:05.344Z,63.13
2023-01-09T06:54:05.328Z,62.66
2023-01-09T06:55:05.310Z,62.55
2023-01-09T06:56:05.313Z,61.59
2023-01-09T06:57:05.289Z,63.01
2023-01-09T06:58:05.302Z,61.87
2023-01-09T06:59:05.286Z,62.04
2023-01-09T07:00:05.270Z,61.21
2023-01-09T07:01:05.424Z,63.13
2023-01-09T07:02:05.357Z,61.46
2023-01-09T07:03:05.274Z,61.95
2023-01-09T07:04:05.403Z,61.79
2023-01-09T07:05:05.240Z,62.23
2023-01-09T07:06:05.257Z,62.38
2023-01-09T07:07:05.237Z,61.61
2023-01-09T07:08:05.271Z,62.38
2023-01-09T07:09:05.226Z,59.18
2023-01-09T07:10:05.209Z,62.16
2023-01-09T07:11:05.210Z,61.58
2023-01-09T07:12:05.198Z,61.17
2023-01-09T07:13:05.213Z,61.34
2023-01-09T07:14:05.189Z,62.12
2023-01-09T07:15:05.187Z,61.14
2023-01-09T07:16:05.221Z,61.38
2023-01-09T07:17:05.191Z,61.43
2023-01-09T07:18:05.177Z,62.50
2023-01-09T07:19:05.157Z,60.51
2023-01-09T07:20:05.148Z,62.15
2023-01-09T07:21:05.155Z,61.93
2023-01-09T07:22:05.135Z,62.30
2023-01-09T07:23:05.162Z,60.29
2023-01-09T07:24:05.135Z,60.77
2023-01-09T07:25:05.110Z,63.29
2023-01-09T07:26:05.102Z,62.14
2023-01-09T07:27:06.102Z,60.70
2023-01-09T07:28:05.127Z,61.89
2023-01-09T07:29:05.102Z,60.85
2023-01-09T07:30:05.086Z,60.52
2023-01-09T07:31:05.093Z,60.92
2023-01-09T07:32:05.088Z,62.14
2023-01-09T07:33:05.081Z,61.82
2023-01-09T07:34:05.096Z,61.84
2023-01-09T07:35:05.046Z,62.55
2023-01-09T07:36:05.043Z,60.96
2023-01-09T07:37:05.043Z,59.82
2023-01-09T07:38:05.107Z,61.44
2023-01-09T07:39:05.046Z,62.40
2023-01-09T07:40:05.046Z,63.37
2023-01-09T07:41:05.015Z,61.00
2023-01-09T07:42:05.016Z,60.45
2023-01-09T07:43:05.010Z,60.18
2023-01-09T07:44:05.003Z,61.59
2023-01-09T07:45:04.993Z,61.93
2023-01-09T07:46:05.028Z,61.01
2023-01-09T07:47:04.970Z,61.11
2023-01-09T07:48:04.961Z,60.64
2023-01-09T07:49:04.970Z,61.94
2023-01-09T07:50:04.972Z,62.23
2023-01-09T07:51:04.950Z,60.36
2023-01-09T07:52:04.989Z,60.52
2023-01-09T07:53:04.948Z,62.42
2023-01-09T07:54:04.962Z,61.36
2023-01-09T07:55:04.950Z,62.70
2023-01-09T07:56:04.929Z,61.81
2023-01-09T07:57:04.918Z,63.77
2023-01-09T07:58:04.914Z,60.35
2023-01-09T07:59:04.896Z,60.39
2023-01-09T08:00:04.892Z,60.23
2023-01-09T08:01:04.948Z,63.17
2023-01-09T08:02:04.987Z,60.88
2023-01-09T08:03:04.943Z,61.42
2023-01-09T08:04:04.869Z,60.12
2023-01-09T08:05:04.861Z,60.67
2023-01-09T08:06:04.868Z,61.13
2023-01-09T08:07:04.850Z,61.39
2023-01-09T08:08:04.843Z,61.47
2023-01-09T08:09:04.842Z,63.44
2023-01-09T08:10:04.821Z,60.18
2023-01-09T08:11:04.846Z,62.41
2023-01-09T08:12:04.810Z,59.31
2023-01-09T08:13:04.802Z,61.60
2023-01-09T08:14:04.802Z,61.83
2023-01-09T08:15:04.790Z,60.97
2023-01-09T08:16:04.830Z,62.94
2023-01-09T08:17:04.821Z,60.19
2023-01-09T08:18:04.780Z,60.30
2023-01-09T08:19:04.748Z,59.79
2023-01-09T08:20:05.772Z,61.48
2023-01-09T08:21:04.767Z,60.73
2023-01-09T08:22:04.764Z,61.16
2023-01-09T08:23:04.761Z,61.30
2023-01-09T08:24:04.736Z,62.33
2023-01-09T08:25:04.725Z,60.80
2023-01-09T08:26:04.784Z,60.49
2023-01-09T08:27:04.715Z,60.02
2023-01-09T08:28:04.903Z,60.72
2023-01-09T08:29:04.738Z,60.86
2023-01-09T08:30:04.701Z,60.87
2023-01-09T08:31:04.717Z,62.10
2023-01-09T08:32:04.683Z,61.22
2023-01-09T08:33:04.670Z,62.42
2023-01-09T08:34:04.663Z,62.83
2023-01-09T08:35:04.714Z,62.88
2023-01-09T08:36:04.699Z,61.44
2023-01-09T08:37:04.666Z,61.75
2023-01-09T08:38:04.649Z,60.72
2023-01-09T08:39:04.641Z,62.08
2023-01-09T08:40:04.694Z,63.15
2023-01-09T08:41:04.629Z,61.98
2023-01-09T08:42:04.638Z,61.17
2023-01-09T08:43:04.611Z,59.85
2023-01-09T08:44:04.621Z,60.45
2023-01-09T08:45:04.604Z,61.62
2023-01-09T08:46:04.623Z,62.71
2023-01-09T08:47:04.603Z,61.99
2023-01-09T08:48:04.584Z,60.02
2023-01-09T08:49:04.568Z,61.04
2023-01-09T08:50:04.561Z,59.34
2023-01-09T08:51:04.571Z,62.10
2023-01-09T08:52:04.572Z,62.18
2023-01-09T08:53:04.603Z,62.07
2023-01-09T08:54:04.544Z,60.01
2023-01-09T08:55:04.617Z,60.18
2023-01-09T08:56:04.523Z,59.67
2023-01-09T08:57:04.536Z,61.75
2023-01-09T08:58:04.527Z,62.13
2023-01-09T08:59:04.508Z,61.10
2023-01-09T09:00:04.501Z,60.95
2023-01-09T09:01:04.497Z,60.45
2023-01-09T09:02:04.497Z,61.36
2023-01-09T09:03:04.577Z,60.74
2023-01-09T09:04:04.472Z,60.72
2023-01-09T09:05:04.489Z,58.21
2023-01-09T09:06:04.483Z,60.42
2023-01-09T09:07:04.483Z,61.46
2023-01-09T09:08:04.468Z,61.22
2023-01-09T09:09:04.521Z,61.23
2023-01-09T09:10:04.447Z,61.40
2023-01-09T09:11:04.419Z,60.21
2023-01-09T09:12:05.430Z,59.41
2023-01-09T09:13:04.437Z,61.76
2023-01-09T09:14:04.445Z,60.13
2023-01-09T09:15:04.414Z,62.64
2023-01-09T09:16:04.417Z,60.82
2023-01-09T09:17:04.402Z,60.88
2023-01-09T09:18:04.408Z,59.22
2023-01-09T09:19:04.393Z,59.39
2023-01-09T09:20:04.404Z,59.07
2023-01-09T09:21:04.377Z,59.98
2023-01-09T09:22:04.374Z,60.51
2023-01-09T09:23:04.351Z,59.99
2023-01-09T09:24:04.369Z,60.29
2023-01-09T09:25:04.339Z,60.33
2023-01-09T09:26:04.338Z,62.36
2023-01-09T09:27:04.339Z,61.33
2023-01-09T09:28:04.319Z,60.41
2023-01-09T09:29:04.365Z,60.83
2023-01-09T09:30:04.331Z,61.10
2023-01-09T09:31:04.371Z,60.64
2023-01-09T09:32:04.307Z,59.47
2023-01-09T09:33:04.304Z,61.15
2023-01-09T09:34:04.303Z,58.50
2023-01-09T09:35:04.273Z,60.59
2023-01-09T09:36:05.289Z,56.44
2023-01-09T09:37:04.328Z,58.30
2023-01-09T09:38:05.598Z,60.38
2023-01-09T09:39:05.261Z,60.29
2023-01-09T09:40:17.438Z,58.14
2023-01-09T09:41:05.270Z,58.51
2023-01-09T09:42:04.250Z,58.42
2023-01-09T09:43:04.266Z,61.57
2023-01-09T09:44:04.218Z,61.17
2023-01-09T09:45:04.222Z,63.43
2023-01-09T09:46:04.272Z,60.17
2023-01-09T09:47:04.214Z,59.39
2023-01-09T09:48:04.194Z,63.48
2023-01-09T09:49:06.477Z,63.92
2023-01-09T09:50:04.203Z,60.39
2023-01-09T09:51:04.178Z,64.83
2023-01-09T09:52:04.183Z,61.25
2023-01-09T09:53:04.153Z,59.76
2023-01-09T09:54:04.158Z,57.31
2023-01-09T09:55:04.151Z,60.33
2023-01-09T09:56:04.153Z,59.97
2023-01-09T09:57:04.156Z,61.30
2023-01-09T09:58:04.130Z,60.53
2023-01-09T09:59:04.117Z,59.51
2023-01-09T10:00:04.106Z,61.69
2023-01-09T10:01:04.114Z,61.20
2023-01-09T10:02:04.154Z,60.33
2023-01-09T10:03:04.146Z,60.02
2023-01-09T10:04:04.149Z,59.08
2023-01-09T10:05:04.089Z,59.99
2023-01-09T10:06:04.083Z,58.47
2023-01-09T10:07:04.073Z,60.99
2023-01-09T10:08:15.418Z,61.47
2023-01-09T10:09:06.069Z,61.10
2023-01-09T10:10:04.060Z,61.06
2023-01-09T10:11:04.037Z,60.34
2023-01-09T10:12:04.067Z,62.37
2023-01-09T10:13:04.031Z,62.28
2023-01-09T10:14:05.931Z,61.75
2023-01-09T10:15:05.017Z,60.86
2023-01-09T10:16:04.136Z,61.64
2023-01-09T10:17:04.010Z,61.29
2023-01-09T10:18:03.997Z,59.65
2023-01-09T10:19:04.003Z,61.59
2023-01-09T10:20:03.982Z,60.92
2023-01-09T10:21:04.990Z,60.72
2023-01-09T10:22:03.963Z,62.43
2023-01-09T10:23:03.974Z,59.06
2023-01-09T10:24:03.951Z,62.00
2023-01-09T10:25:03.949Z,59.69
2023-01-09T10:26:03.950Z,59.23
2023-01-09T10:27:03.952Z,58.91
2023-01-09T10:28:03.934Z,61.64
2023-01-09T10:29:03.917Z,58.79
2023-01-09T10:30:03.924Z,59.19
2023-01-09T10:31:03.966Z,60.65
2023-01-09T10:32:03.923Z,60.65
2023-01-09T10:33:03.901Z,61.39
2023-01-09T10:34:03.886Z,60.45
2023-01-09T10:35:03.883Z,62.24
2023-01-09T10:36:03.892Z,61.14
2023-01-09T10:37:03.916Z,61.92
2023-01-09T10:38:03.865Z,61.18
2023-01-09T10:39:03.858Z,61.44
2023-01-09T10:40:03.850Z,60.47
2023-01-09T10:41:03.836Z,58.52
2023-01-09T10:42:03.833Z,59.34
2023-01-09T10:43:03.839Z,59.51
2023-01-09T10:44:03.825Z,60.09
2023-01-09T10:45:03.836Z,60.96
2023-01-09T10:46:03.803Z,61.00
2023-01-09T10:47:03.789Z,61.48
2023-01-09T10:48:03.791Z,61.34
2023-01-09T10:49:03.789Z,63.40
2023-01-09T10:50:03.767Z,61.91
2023-01-09T10:51:03.784Z,61.99
2023-01-09T10:52:03.766Z,59.43
2023-01-09T10:53:03.738Z,60.18
2023-01-09T10:54:03.743Z,59.87
2023-01-09T10:55:03.737Z,60.92
2023-01-09T10:56:03.744Z,61.13
2023-01-09T10:57:03.726Z,60.40
2023-01-09T10:58:03.723Z,59.65
2023-01-09T10:59:03.720Z,62.87
2023-01-09T11:00:03.718Z,61.23
2023-01-09T11:01:03.709Z,59.98
2023-01-09T11:02:03.714Z,59.54
2023-01-09T11:03:03.704Z,61.38
2023-01-09T11:04:03.705Z,60.09
2023-01-09T11:05:03.694Z,60.22
2023-01-09T11:06:03.661Z,60.20
2023-01-09T11:07:03.679Z,59.02
2023-01-09T11:08:03.647Z,61.68
2023-01-09T11:09:03.628Z,61.82
2023-01-09T11:10:03.625Z,59.81
2023-01-09T11:11:03.663Z,59.73
2023-01-09T11:12:03.619Z,61.33
2023-01-09T11:13:03.610Z,61.30
2023-01-09T11:14:03.606Z,60.22
2023-01-09T11:15:03.623Z,61.35
2023-01-09T11:16:03.631Z,61.78
2023-01-09T11:17:03.600Z,61.69
2023-01-09T11:18:03.571Z,61.51
2023-01-09T11:19:03.602Z,60.66
2023-01-09T11:20:03.564Z,61.61
2023-01-09T11:21:03.566Z,60.63
2023-01-09T11:22:03.555Z,63.72
2023-01-09T11:23:03.545Z,58.73
2023-01-09T11:24:03.546Z,61.13
2023-01-09T11:25:03.566Z,61.12
2023-01-09T11:26:03.547Z,62.01
2023-01-09T11:27:03.527Z,59.89
2023-01-09T11:28:03.537Z,60.69
2023-01-09T11:29:03.517Z,60.63
2023-01-09T11:30:03.541Z,61.99
2023-01-09T11:31:03.549Z,61.65
2023-01-09T11:32:03.478Z,62.02
2023-01-09T11:33:03.477Z,62.56
2023-01-09T11:34:03.483Z,62.91
2023-01-09T11:35:03.446Z,61.86
2023-01-09T11:36:03.464Z,60.99
2023-01-09T11:37:03.540Z,61.57
2023-01-09T11:38:03.431Z,61.17
2023-01-09T11:39:03.426Z,60.03
2023-01-09T11:40:03.452Z,60.96
2023-01-09T11:41:03.431Z,60.38
2023-01-09T11:42:04.443Z,61.87
2023-01-09T11:43:03.398Z,60.73
2023-01-09T11:44:03.409Z,59.06
2023-01-09T11:45:03.389Z,60.67
2023-01-09T11:46:03.403Z,61.18
2023-01-09T11:47:03.415Z,59.52
2023-01-09T11:48:03.378Z,60.82
2023-01-09T11:49:03.377Z,60.53
2023-01-09T11:50:03.368Z,57.48
2023-01-09T11:51:03.344Z,60.35
2023-01-09T11:52:03.367Z,61.73
2023-01-09T11:53:03.346Z,61.34
2023-01-09T11:54:03.349Z,61.21
2023-01-09T11:55:03.334Z,60.63
2023-01-09T11:56:03.343Z,61.48
2023-01-09T11:57:03.327Z,60.22
2023-01-09T11:58:03.302Z,59.68
2023-01-09T11:59:03.293Z,60.79
2023-01-09T12:00:03.338Z,61.99
2023-01-09T12:01:03.349Z,61.19
2023-01-09T12:02:03.332Z,60.33
2023-01-09T12:03:03.322Z,59.65
2023-01-09T12:04:03.270Z,59.62
2023-01-09T12:05:03.271Z,59.82
2023-01-09T12:06:03.257Z,61.59
2023-01-09T12:07:03.277Z,62.46
2023-01-09T12:08:03.248Z,62.58
2023-01-09T12:09:03.263Z,61.15
2023-01-09T12:10:03.303Z,61.50
2023-01-09T12:11:03.254Z,60.03
2023-01-09T12:12:03.265Z,61.72
2023-01-09T12:13:03.223Z,61.94
2023-01-09T12:14:03.210Z,60.91
2023-01-09T12:15:03.206Z,61.76
2023-01-09T12:16:03.251Z,62.24
2023-01-09T12:17:03.182Z,62.18
2023-01-09T12:18:03.203Z,61.59
2023-01-09T12:19:03.169Z,62.42
2023-01-09T12:20:03.171Z,65.99
2023-01-09T12:21:03.169Z,62.53
2023-01-09T12:22:03.149Z,62.52
2023-01-09T12:23:03.141Z,63.65
2023-01-09T12:24:03.144Z,62.64
2023-01-09T12:25:03.135Z,61.91
2023-01-09T12:26:03.129Z,62.30
2023-01-09T12:27:03.115Z,62.83
2023-01-09T12:28:03.119Z,60.75
2023-01-09T12:29:03.927Z,62.53
2023-01-09T12:30:03.119Z,62.59
2023-01-09T12:31:03.108Z,62.06
2023-01-09T12:32:03.113Z,63.78
2023-01-09T12:33:03.089Z,62.33
2023-01-09T12:34:03.069Z,61.62
2023-01-09T12:35:03.052Z,62.89
2023-01-09T12:36:03.080Z,63.49
2023-01-09T12:37:03.048Z,62.47
2023-01-09T12:38:03.049Z,62.87
2023-01-09T12:39:03.029Z,61.92
2023-01-09T12:40:03.027Z,62.89
2023-01-09T12:41:03.025Z,62.10
2023-01-09T12:42:03.001Z,62.88
2023-01-09T12:43:03.012Z,61.31
2023-01-09T12:44:02.996Z,61.36
2023-01-09T12:45:02.984Z,63.12
2023-01-09T12:46:03.033Z,61.38
2023-01-09T12:47:02.971Z,60.78
2023-01-09T12:48:02.964Z,63.29
2023-01-09T12:49:02.966Z,64.18
2023-01-09T12:50:02.982Z,61.95
2023-01-09T12:51:02.968Z,62.84
2023-01-09T12:52:02.947Z,59.91